FDX13 KASE-KLAX
Flight info
| Callsign | FDX13 |
|---|---|
| Flight time | N/A |
| Altitude | 32000 |
| Route | LINDZ1 ZAKRY Q88 HAKMN Q73 ZELMA V538 TNP |
| Aircraft | B737/M-VGDW/C |
Departure
| Time | 2026-04-27 08:31 |
|---|---|
| Airport | Aspen-Pitkin County Airport (Sardy Field) (KASE) |
Arrival
| Time | N/A |
|---|---|
| Airport | Los Angeles International Airport (KLAX) |
| Time | Latitude | Longitude | Altitude | Speed | Heading |
|---|---|---|---|---|---|
| 2026-04-27 08:31 | 39.34370 | -107.05072 | 12036 ft | 321 kts | 296° |
| 2026-04-27 08:31 | 39.35432 | -107.07609 | 12819 ft | 326 kts | 297° |
| 2026-04-27 08:32 | 39.36526 | -107.10203 | 13498 ft | 332 kts | 296° |
| 2026-04-27 08:32 | 39.37629 | -107.12839 | 14201 ft | 334 kts | 295° |
| 2026-04-27 08:32 | 39.38449 | -107.15647 | 14922 ft | 334 kts | 282° |
| 2026-04-27 08:32 | 39.38746 | -107.18626 | 15645 ft | 337 kts | 270° |
| 2026-04-27 08:33 | 39.38508 | -107.21653 | 16352 ft | 340 kts | 258° |
| 2026-04-27 08:33 | 39.37738 | -107.24565 | 17028 ft | 345 kts | 246° |
| 2026-04-27 08:33 | 39.36484 | -107.27237 | 17702 ft | 351 kts | 236° |
| 2026-04-27 08:33 | 39.35018 | -107.29742 | 18323 ft | 355 kts | 234° |
| 2026-04-27 08:34 | 39.33562 | -107.32341 | 18887 ft | 358 kts | 238° |
| 2026-04-27 08:34 | 39.32322 | -107.35140 | 19474 ft | 360 kts | 246° |
| 2026-04-27 08:34 | 39.31309 | -107.38111 | 20040 ft | 362 kts | 249° |
| 2026-04-27 08:34 | 39.30310 | -107.41124 | 20601 ft | 366 kts | 246° |
| 2026-04-27 08:35 | 39.29184 | -107.44096 | 21177 ft | 369 kts | 244° |
| 2026-04-27 08:35 | 39.28025 | -107.47024 | 21729 ft | 372 kts | 245° |
| 2026-04-27 08:35 | 39.26889 | -107.50035 | 22281 ft | 375 kts | 246° |
| 2026-04-27 08:35 | 39.25766 | -107.53098 | 22818 ft | 378 kts | 246° |
| 2026-04-27 08:36 | 39.24614 | -107.56179 | 23361 ft | 381 kts | 245° |
| 2026-04-27 08:36 | 39.23441 | -107.59262 | 23818 ft | 384 kts | 245° |
| 2026-04-27 08:36 | 39.22263 | -107.62370 | 24256 ft | 387 kts | 245° |